Time;durP1;ratioP1;P1;durP2;ratioP2;P2;SDS_P1;SDS_P2;PMS_P1;PMS_P2;Temp;Humidity;BMP_temperature;BMP_pressure;BME280_temperature;BME280_humidity;BME280_pressure;Samples;Min_cycle;Max_cycle;Signal;HPM_P1;HPM_P2
2023/07/18 00:00:35;;;;;;;5.78;3.20;;;14.00;99.90;;;;;;6176730;23;20087;-80
2023/07/18 00:03:03;;;;;;;8.05;3.40;;;13.90;99.90;;;;;;6178032;23;19997;-79
2023/07/18 00:05:29;;;;;;;4.93;3.00;;;13.90;99.90;;;;;;6179410;23;20440;-79
2023/07/18 00:07:55;;;;;;;8.07;3.25;;;13.90;99.90;;;;;;6178322;23;20012;-78
2023/07/18 00:10:22;;;;;;;9.88;3.95;;;13.80;99.90;;;;;;6177823;23;20036;-79
2023/07/18 00:12:47;;;;;;;4.93;3.45;;;13.80;99.90;;;;;;6177580;23;20028;-78
2023/07/18 00:15:13;;;;;;;6.22;3.40;;;13.80;99.90;;;;;;6178688;23;20001;-78
2023/07/18 00:17:40;;;;;;;3.60;2.95;;;13.80;99.90;;;;;;6178525;23;20327;-78
2023/07/18 00:20:12;;;;;;;6.65;3.42;;;13.80;99.90;;;;;;6179707;23;20088;-79
2023/07/18 00:22:43;;;;;;;8.35;3.33;;;13.80;99.90;;;;;;6178330;23;20083;-78
2023/07/18 00:25:16;;;;;;;8.32;3.63;;;13.80;99.90;;;;;;6179403;23;20015;-79
2023/07/18 00:27:42;;;;;;;13.40;3.92;;;13.80;99.90;;;;;;6177497;23;20463;-79
2023/07/18 00:30:12;;;;;;;8.13;4.43;;;13.80;99.90;;;;;;6177350;23;19997;-78
2023/07/18 00:32:37;;;;;;;8.23;3.35;;;13.80;99.90;;;;;;6178638;23;20032;-78
2023/07/18 00:35:04;;;;;;;8.35;3.65;;;13.80;99.90;;;;;;6179123;23;19989;-79
2023/07/18 00:37:31;;;;;;;10.13;4.07;;;13.80;99.90;;;;;;6178274;23;20005;-79
2023/07/18 00:39:56;;;;;;;9.50;4.13;;;13.80;99.90;;;;;;6178972;23;20001;-78
2023/07/18 00:42:22;;;;;;;9.90;4.75;;;13.90;99.90;;;;;;6177181;23;20043;-78
2023/07/18 00:44:51;;;;;;;9.18;3.60;;;13.90;99.90;;;;;;6178671;23;20293;-79
2023/07/18 00:47:18;;;;;;;8.13;3.60;;;13.90;99.90;;;;;;6178523;23;20237;-78
2023/07/18 00:49:45;;;;;;;8.10;3.60;;;13.90;99.90;;;;;;6178081;23;20334;-78
2023/07/18 00:52:12;;;;;;;6.45;3.60;;;14.00;99.90;;;;;;6176880;23;20016;-79
2023/07/18 00:54:38;;;;;;;11.30;3.80;;;14.00;99.90;;;;;;6179276;23;20008;-78
2023/07/18 00:57:06;;;;;;;10.45;3.85;;;14.00;99.90;;;;;;6178449;23;20016;-78
2023/07/18 00:59:32;;;;;;;10.20;4.10;;;14.00;99.90;;;;;;6177560;23;20059;-78
2023/07/18 01:01:58;;;;;;;8.90;3.92;;;14.00;99.90;;;;;;6177671;23;20440;-79
2023/07/18 01:04:24;;;;;;;5.88;3.63;;;14.00;99.90;;;;;;6177097;23;20051;-78
2023/07/18 01:06:51;;;;;;;8.02;3.85;;;14.00;99.90;;;;;;6178738;23;20001;-79
2023/07/18 01:09:17;;;;;;;8.02;3.97;;;14.00;99.90;;;;;;6177388;23;20013;-78
2023/07/18 01:11:43;;;;;;;8.52;4.35;;;14.00;99.90;;;;;;6178372;23;20016;-79
2023/07/18 01:14:09;;;;;;;9.23;4.50;;;14.00;99.90;;;;;;6178671;23;20012;-78
2023/07/18 01:16:35;;;;;;;13.18;4.97;;;14.00;99.90;;;;;;6176935;23;20037;-78
2023/07/18 01:19:01;;;;;;;9.95;4.65;;;14.00;99.90;;;;;;6177824;23;20060;-78
2023/07/18 01:21:27;;;;;;;13.30;5.15;;;14.00;99.90;;;;;;6178318;23;20443;-79
2023/07/18 01:23:53;;;;;;;11.02;4.50;;;14.00;99.90;;;;;;6178167;23;19997;-78
2023/07/18 01:26:19;;;;;;;9.73;4.28;;;14.00;99.90;;;;;;6177689;23;20001;-79
2023/07/18 01:28:44;;;;;;;12.93;4.05;;;14.00;99.90;;;;;;6177486;23;20445;-79
2023/07/18 01:31:10;;;;;;;9.77;4.90;;;14.00;99.90;;;;;;6176384;23;20437;-79
2023/07/18 01:33:36;;;;;;;10.63;4.90;;;13.90;99.90;;;;;;6177356;23;20005;-80
2023/07/18 01:36:02;;;;;;;12.07;5.03;;;14.00;99.90;;;;;;6178202;23;19998;-80
2023/07/18 01:38:31;;;;;;;5.80;3.85;;;14.00;99.90;;;;;;6177986;23;20168;-80
2023/07/18 01:41:00;;;;;;;6.75;4.28;;;14.00;99.90;;;;;;6177787;23;20347;-79
2023/07/18 01:43:26;;;;;;;13.70;4.20;;;14.00;99.90;;;;;;6177448;23;20001;-79
2023/07/18 01:45:56;;;;;;;10.60;4.47;;;14.00;99.90;;;;;;6178420;23;20040;-78
2023/07/18 01:48:22;;;;;;;8.10;4.05;;;14.00;99.90;;;;;;6176951;23;20486;-79
2023/07/18 01:50:48;;;;;;;8.20;4.63;;;14.00;99.90;;;;;;6177778;23;20005;-80
2023/07/18 01:53:13;;;;;;;7.65;4.30;;;14.00;99.90;;;;;;6176512;23;20011;-79
2023/07/18 01:55:39;;;;;;;11.48;3.83;;;14.00;99.90;;;;;;6177855;23;20007;-79
2023/07/18 01:58:05;;;;;;;7.72;4.55;;;14.00;99.90;;;;;;6178104;23;20005;-80
2023/07/18 02:00:32;;;;;;;11.75;4.88;;;13.90;99.90;;;;;;6176261;23;20395;-79
2023/07/18 02:02:58;;;;;;;11.82;4.65;;;13.90;99.90;;;;;;6177550;23;20411;-78
2023/07/18 02:05:30;;;;;;;8.13;3.45;;;13.80;99.90;;;;;;6175807;23;20029;-79
2023/07/18 02:08:00;;;;;;;6.68;3.30;;;13.80;99.90;;;;;;6177542;23;20323;-79
2023/07/18 02:10:26;;;;;;;9.70;4.70;;;13.80;99.90;;;;;;6178349;23;20324;-79
2023/07/18 02:12:54;;;;;;;7.55;4.15;;;13.70;99.90;;;;;;6177331;23;20501;-79
2023/07/18 02:15:21;;;;;;;9.10;4.30;;;13.70;99.90;;;;;;6176666;23;20001;-79
2023/07/18 02:17:47;;;;;;;11.25;4.57;;;13.70;99.90;;;;;;6177413;23;20005;-79
2023/07/18 02:20:14;;;;;;;19.10;5.05;;;13.70;99.90;;;;;;6177392;23;20099;-79
2023/07/18 02:22:41;;;;;;;7.03;3.63;;;13.70;99.90;;;;;;6176430;23;20004;-79
2023/07/18 02:25:08;;;;;;;10.68;4.68;;;13.60;99.90;;;;;;6177380;23;20004;-78
2023/07/18 02:27:37;;;;;;;7.80;3.92;;;13.70;99.90;;;;;;6177297;23;20005;-78
2023/07/18 02:30:08;;;;;;;9.80;4.53;;;13.70;99.90;;;;;;6177840;23;20478;-79
2023/07/18 02:32:34;;;;;;;8.00;4.13;;;13.80;99.90;;;;;;6177375;23;20008;-79
2023/07/18 02:35:00;;;;;;;11.45;5.05;;;13.80;99.90;;;;;;6178139;23;20084;-79
2023/07/18 02:37:26;;;;;;;10.35;3.78;;;13.80;99.90;;;;;;6175699;23;20001;-79
2023/07/18 02:39:52;;;;;;;9.20;4.88;;;13.90;99.90;;;;;;6177372;23;20015;-79
2023/07/18 02:42:18;;;;;;;7.40;4.20;;;14.00;99.90;;;;;;6176378;23;20302;-79
2023/07/18 02:44:45;;;;;;;8.80;4.53;;;14.00;99.90;;;;;;6177197;23;20047;-79
2023/07/18 02:47:11;;;;;;;7.88;4.60;;;14.00;99.90;;;;;;6177608;23;20366;-79
2023/07/18 02:49:36;;;;;;;6.63;4.25;;;14.10;99.90;;;;;;6176343;23;19997;-78
2023/07/18 02:52:05;;;;;;;8.55;4.20;;;14.00;99.90;;;;;;6177534;23;20001;-79
2023/07/18 02:54:31;;;;;;;9.88;4.40;;;14.10;99.90;;;;;;6177396;23;20012;-79
2023/07/18 02:56:58;;;;;;;14.27;4.70;;;14.10;99.90;;;;;;6177308;23;20005;-79
2023/07/18 02:59:24;;;;;;;9.45;4.60;;;14.10;99.90;;;;;;6177524;23;20008;-80
2023/07/18 03:01:50;;;;;;;7.47;4.38;;;14.10;99.90;;;;;;6176297;23;20017;-80
2023/07/18 03:04:18;;;;;;;8.50;3.65;;;14.10;99.90;;;;;;6177555;23;19997;-79
2023/07/18 03:06:47;;;;;;;9.27;4.43;;;14.10;99.90;;;;;;6177702;23;20013;-79
2023/07/18 03:09:16;;;;;;;11.00;4.78;;;14.00;99.90;;;;;;6175522;23;20017;-79
2023/07/18 03:11:42;;;;;;;5.65;3.50;;;14.10;99.90;;;;;;6176097;23;20005;-80
2023/07/18 03:14:08;;;;;;;10.25;4.25;;;14.00;99.90;;;;;;6177148;23;19998;-79
2023/07/18 03:16:34;;;;;;;6.75;3.78;;;14.10;99.90;;;;;;6177223;23;20001;-79
2023/07/18 03:18:59;;;;;;;6.80;4.47;;;13.90;99.90;;;;;;6177451;23;20473;-79
2023/07/18 03:21:25;;;;;;;7.80;4.43;;;13.90;99.90;;;;;;6178023;23;20024;-80
2023/07/18 03:23:55;;;;;;;7.43;3.97;;;13.90;99.90;;;;;;6178085;23;20001;-80
2023/07/18 03:26:21;;;;;;;8.95;4.15;;;13.90;99.90;;;;;;6177851;23;20021;-79
2023/07/18 03:28:46;;;;;;;10.80;5.43;;;14.00;99.90;;;;;;6177514;23;19997;-80
2023/07/18 03:31:12;;;;;;;10.50;4.43;;;14.00;99.90;;;;;;6176371;23;20312;-80
2023/07/18 03:33:37;;;;;;;8.80;4.20;;;13.90;99.90;;;;;;6176641;23;20012;-79
2023/07/18 03:36:06;;;;;;;8.32;4.50;;;14.10;99.90;;;;;;6177228;23;20013;-78
2023/07/18 03:38:32;;;;;;;16.83;5.60;;;14.00;99.90;;;;;;6177019;23;20005;-79
2023/07/18 03:40:58;;;;;;;11.10;5.35;;;14.00;99.90;;;;;;6177676;23;20087;-80
2023/07/18 03:43:24;;;;;;;16.60;4.90;;;14.00;99.90;;;;;;6177011;23;20451;-80
2023/07/18 03:45:51;;;;;;;11.32;5.22;;;14.10;99.90;;;;;;6178361;23;20058;-79
2023/07/18 03:48:18;;;;;;;9.35;4.60;;;14.10;99.90;;;;;;6177124;23;19997;-80
2023/07/18 03:50:44;;;;;;;12.60;5.28;;;14.10;99.90;;;;;;6175563;23;20016;-80
2023/07/18 03:53:09;;;;;;;13.95;4.35;;;14.10;99.90;;;;;;6149412;23;20724;-79
2023/07/18 03:55:35;;;;;;;17.08;5.53;;;14.10;99.90;;;;;;6176159;23;20023;-79
2023/07/18 03:58:01;;;;;;;8.45;4.90;;;14.10;99.90;;;;;;6174976;23;20067;-79
2023/07/18 04:00:28;;;;;;;11.18;4.88;;;14.00;99.90;;;;;;6175911;23;20009;-79
2023/07/18 04:02:54;;;;;;;11.25;4.57;;;14.10;99.90;;;;;;6177154;23;20451;-79
2023/07/18 04:05:20;;;;;;;11.10;4.10;;;14.10;99.90;;;;;;6178467;23;19998;-80
2023/07/18 04:07:46;;;;;;;11.05;4.75;;;14.10;99.90;;;;;;6177713;23;20005;-80
2023/07/18 04:10:12;;;;;;;9.73;5.03;;;14.10;99.90;;;;;;6176160;23;19997;-80
2023/07/18 04:12:40;;;;;;;9.27;4.18;;;14.20;99.90;;;;;;6177249;23;20012;-79
2023/07/18 04:15:07;;;;;;;10.35;4.72;;;14.20;99.90;;;;;;6177154;23;20027;-80
2023/07/18 04:17:33;;;;;;;5.55;3.72;;;14.20;99.90;;;;;;6177308;23;20005;-80
2023/07/18 04:19:59;;;;;;;5.60;3.78;;;14.30;99.90;;;;;;6177384;23;20047;-80
2023/07/18 04:22:26;;;;;;;15.15;5.22;;;14.30;99.90;;;;;;6177959;23;20005;-79
2023/07/18 04:24:54;;;;;;;15.82;4.47;;;14.40;99.90;;;;;;6177876;23;20435;-80
2023/07/18 04:27:19;;;;;;;9.32;4.53;;;14.40;99.90;;;;;;6177289;23;20001;-81
2023/07/18 04:29:45;;;;;;;11.15;4.50;;;14.40;99.90;;;;;;6177358;23;20112;-80
2023/07/18 04:32:11;;;;;;;9.40;4.70;;;14.50;99.90;;;;;;6150130;23;20001;-80
2023/07/18 04:34:37;;;;;;;7.25;3.97;;;14.50;99.90;;;;;;6176900;23;20071;-80
2023/07/18 04:37:04;;;;;;;12.27;4.10;;;14.50;99.90;;;;;;6176309;23;20443;-80
2023/07/18 04:39:30;;;;;;;14.38;4.43;;;14.50;99.90;;;;;;6174482;23;20001;-80
2023/07/18 04:41:56;;;;;;;10.85;4.65;;;14.60;99.90;;;;;;6177863;23;20013;-80
2023/07/18 04:44:23;;;;;;;9.73;4.30;;;14.60;99.90;;;;;;6175033;23;20324;-80
2023/07/18 04:46:48;;;;;;;5.97;3.47;;;14.60;99.90;;;;;;6175971;23;20116;-80
2023/07/18 04:49:14;;;;;;;7.30;4.10;;;14.60;99.90;;;;;;6174917;23;20017;-80
2023/07/18 04:51:39;;;;;;;10.98;4.03;;;14.70;99.90;;;;;;6176294;23;20013;-80
2023/07/18 04:54:06;;;;;;;19.50;4.65;;;14.70;99.90;;;;;;6177877;23;20486;-80
2023/07/18 04:56:32;;;;;;;16.50;4.45;;;14.70;99.90;;;;;;6178099;23;20004;-80
2023/07/18 04:58:59;;;;;;;8.50;3.70;;;14.60;99.90;;;;;;6177749;23;20025;-80
2023/07/18 05:01:26;;;;;;;7.65;3.63;;;14.70;99.90;;;;;;6179046;23;20023;-80
2023/07/18 05:03:52;;;;;;;13.10;4.93;;;14.70;99.90;;;;;;6177965;23;20076;-79
2023/07/18 05:06:17;;;;;;;9.48;4.13;;;14.70;99.90;;;;;;6178676;23;20450;-80
2023/07/18 05:08:43;;;;;;;11.18;4.18;;;14.70;99.90;;;;;;6178902;23;20301;-80
2023/07/18 05:11:12;;;;;;;12.30;4.20;;;14.70;99.90;;;;;;6178663;23;20021;-80
2023/07/18 05:13:38;;;;;;;9.30;3.70;;;14.70;99.90;;;;;;6177340;23;20023;-80
2023/07/18 05:16:04;;;;;;;9.30;4.47;;;14.70;99.90;;;;;;6177845;23;20435;-82
2023/07/18 05:18:30;;;;;;;7.40;4.45;;;14.70;99.90;;;;;;6178869;23;20008;-81
2023/07/18 05:20:56;;;;;;;10.52;4.30;;;14.80;99.90;;;;;;6152169;23;20009;-80
2023/07/18 05:23:22;;;;;;;9.88;4.13;;;14.80;99.90;;;;;;6178824;23;20048;-80
2023/07/18 05:25:48;;;;;;;10.88;3.92;;;14.80;99.90;;;;;;6175376;23;20009;-80
2023/07/18 05:28:14;;;;;;;5.45;3.25;;;14.80;99.90;;;;;;6173656;23;20005;-81
2023/07/18 05:30:40;;;;;;;7.07;3.58;;;14.90;99.90;;;;;;6175450;23;20606;-80
2023/07/18 05:33:05;;;;;;;7.97;3.88;;;15.00;99.90;;;;;;6177866;23;20439;-80
2023/07/18 05:35:31;;;;;;;7.82;3.92;;;15.00;99.90;;;;;;6178121;23;20524;-80
2023/07/18 05:37:57;;;;;;;10.45;4.45;;;15.20;99.90;;;;;;6178093;23;20009;-81
2023/07/18 05:40:24;;;;;;;13.90;3.80;;;15.30;99.90;;;;;;6178724;23;20020;-81
2023/07/18 05:42:50;;;;;;;10.82;4.63;;;15.40;99.90;;;;;;6178742;23;20009;-81
2023/07/18 05:45:16;;;;;;;20.48;6.00;;;15.50;99.90;;;;;;6178378;23;20462;-80
2023/07/18 05:47:42;;;;;;;10.38;4.43;;;15.60;99.90;;;;;;6177027;23;20028;-81
2023/07/18 05:50:07;;;;;;;11.25;3.70;;;15.70;99.90;;;;;;6177371;23;20084;-81
2023/07/18 05:52:34;;;;;;;11.30;4.53;;;15.80;99.90;;;;;;6177418;23;19997;-80
2023/07/18 05:54:59;;;;;;;10.65;3.75;;;15.90;99.90;;;;;;6175242;23;20002;-81
2023/07/18 05:57:25;;;;;;;12.13;3.83;;;15.90;99.90;;;;;;6177017;23;20011;-81
2023/07/18 05:59:51;;;;;;;6.45;3.45;;;16.00;99.90;;;;;;6176782;23;20001;-81
2023/07/18 06:02:16;;;;;;;10.55;3.47;;;16.10;99.90;;;;;;6177790;23;20001;-81
2023/07/18 06:04:43;;;;;;;7.88;3.72;;;16.10;99.90;;;;;;6178713;23;20001;-81
2023/07/18 06:07:08;;;;;;;10.02;3.35;;;16.20;99.90;;;;;;6177012;23;20057;-81
2023/07/18 06:09:34;;;;;;;14.73;3.45;;;16.20;99.90;;;;;;6151948;23;20013;-81
2023/07/18 06:12:00;;;;;;;9.68;3.72;;;16.30;99.90;;;;;;6175847;23;20305;-82
2023/07/18 06:14:26;;;;;;;14.20;3.90;;;16.40;99.90;;;;;;6177965;23;20001;-81
2023/07/18 06:16:52;;;;;;;13.85;4.22;;;16.40;99.90;;;;;;6177777;23;20396;-80
2023/07/18 06:19:17;;;;;;;8.70;3.88;;;16.60;99.90;;;;;;6178566;23;20052;-81
2023/07/18 06:21:43;;;;;;;12.40;3.78;;;16.60;99.90;;;;;;6177714;23;20040;-81
2023/07/18 06:24:09;;;;;;;12.02;4.95;;;16.70;99.90;;;;;;6176672;23;20012;-81
2023/07/18 06:26:35;;;;;;;13.77;4.13;;;16.70;99.90;;;;;;6177069;23;20028;-81
2023/07/18 06:29:00;;;;;;;11.35;3.92;;;16.70;99.90;;;;;;6177936;23;20096;-81
2023/07/18 06:31:26;;;;;;;16.67;4.55;;;16.70;99.90;;;;;;6177275;23;20072;-82
2023/07/18 06:33:51;;;;;;;15.52;3.80;;;16.70;99.90;;;;;;6178000;23;19998;-82
2023/07/18 06:36:17;;;;;;;14.18;3.78;;;16.80;99.90;;;;;;6178393;23;20420;-82
2023/07/18 06:38:46;;;;;;;10.98;3.35;;;16.80;99.90;;;;;;6177912;23;20087;-81
2023/07/18 06:41:12;;;;;;;11.70;3.17;;;16.80;99.90;;;;;;6150348;23;20009;-82
2023/07/18 06:43:38;;;;;;;11.88;3.95;;;16.90;99.90;;;;;;6176803;23;20001;-82
2023/07/18 06:46:04;;;;;;;11.98;3.90;;;16.90;99.90;;;;;;6178417;23;20005;-82
2023/07/18 06:48:29;;;;;;;5.88;2.58;;;16.90;99.90;;;;;;6178210;23;20001;-82
2023/07/18 06:50:58;;;;;;;8.43;3.42;;;16.90;99.90;;;;;;6176004;23;20431;-82
2023/07/18 06:53:23;;;;;;;17.13;4.32;;;16.90;99.90;;;;;;6177835;23;20364;-82
2023/07/18 06:55:49;;;;;;;13.15;3.60;;;17.00;99.90;;;;;;6177887;23;20001;-82
2023/07/18 06:58:16;;;;;;;9.32;4.28;;;17.10;99.90;;;;;;6177051;23;20005;-82
2023/07/18 07:00:43;;;;;;;8.45;3.42;;;17.10;99.90;;;;;;6176104;23;20020;-83
2023/07/18 07:03:09;;;;;;;23.63;4.15;;;17.20;99.90;;;;;;6177081;23;19998;-81
2023/07/18 07:05:38;;;;;;;12.15;4.40;;;17.20;99.90;;;;;;6178067;23;20015;-83
2023/07/18 07:08:12;;;;;;;11.40;3.95;;;17.30;99.90;;;;;;6176982;23;20025;-83
2023/07/18 07:10:40;;;;;;;10.30;3.38;;;17.30;99.90;;;;;;6176894;23;20435;-81
2023/07/18 07:13:06;;;;;;;10.68;3.33;;;17.40;99.90;;;;;;6177895;23;20001;-83
2023/07/18 07:15:35;;;;;;;10.05;3.33;;;17.50;99.90;;;;;;6177687;23;20001;-82
2023/07/18 07:18:02;;;;;;;8.88;3.60;;;17.50;99.90;;;;;;6177237;23;20051;-83
2023/07/18 07:20:30;;;;;;;14.65;3.45;;;17.40;99.90;;;;;;6177596;23;20015;-83
2023/07/18 07:22:56;;;;;;;11.23;3.58;;;17.50;99.90;;;;;;6176061;23;20001;-84
2023/07/18 07:25:25;;;;;;;12.32;3.95;;;17.50;99.90;;;;;;6177346;23;20439;-83
2023/07/18 07:27:51;;;;;;;12.75;3.70;;;17.60;99.90;;;;;;6175724;23;20127;-82
2023/07/18 07:30:16;;;;;;;12.55;5.05;;;17.60;99.90;;;;;;6150382;23;20327;-81
2023/07/18 07:32:43;;;;;;;9.93;3.28;;;17.70;99.90;;;;;;6176212;23;20092;-82
2023/07/18 07:35:09;;;;;;;11.15;3.85;;;17.70;99.90;;;;;;6177249;23;20001;-82
2023/07/18 07:37:36;;;;;;;10.82;3.67;;;17.80;99.90;;;;;;6179764;23;20051;-82
2023/07/18 07:40:02;;;;;;;8.32;3.03;;;17.70;99.90;;;;;;6180087;23;20036;-83
2023/07/18 07:42:28;;;;;;;12.55;3.10;;;17.80;99.90;;;;;;6179719;23;20036;-83
2023/07/18 07:44:54;;;;;;;13.90;3.25;;;17.80;99.90;;;;;;6179131;23;20001;-81
2023/07/18 07:47:19;;;;;;;8.05;2.67;;;17.90;99.90;;;;;;6153862;23;20427;-84
2023/07/18 07:49:45;;;;;;;8.85;3.40;;;17.90;99.90;;;;;;6179822;23;20012;-84
2023/07/18 07:52:11;;;;;;;9.38;3.33;;;18.00;99.90;;;;;;6179621;23;20009;-84
2023/07/18 07:54:36;;;;;;;8.85;3.17;;;18.00;99.90;;;;;;6179807;23;20029;-83
2023/07/18 07:57:03;;;;;;;8.50;2.95;;;18.00;99.90;;;;;;6179925;23;20340;-83
2023/07/18 07:59:29;;;;;;;5.70;2.88;;;18.10;99.90;;;;;;6153024;23;20083;-84
2023/07/18 08:01:55;;;;;;;6.25;2.70;;;18.20;99.90;;;;;;6179202;23;20502;-83
2023/07/18 08:04:20;;;;;;;15.45;3.72;;;18.30;99.90;;;;;;6179877;23;20009;-83
2023/07/18 08:06:46;;;;;;;9.20;3.05;;;18.30;99.90;;;;;;6179438;23;20021;-84
2023/07/18 08:09:11;;;;;;;7.85;2.97;;;18.30;99.90;;;;;;6179318;23;20021;-85
2023/07/18 08:11:38;;;;;;;7.57;3.03;;;18.30;99.90;;;;;;6179605;23;20037;-84
2023/07/18 08:14:04;;;;;;;8.57;2.65;;;18.40;99.90;;;;;;6179618;23;20024;-85
2023/07/18 08:16:29;;;;;;;9.10;2.17;;;18.40;99.90;;;;;;6179209;23;20005;-85
2023/07/18 08:18:55;;;;;;;12.13;3.13;;;18.50;99.90;;;;;;6179094;23;20009;-85
2023/07/18 08:21:20;;;;;;;6.57;2.45;;;18.50;99.90;;;;;;6179342;23;20027;-85
2023/07/18 08:23:46;;;;;;;9.55;2.58;;;18.50;99.90;;;;;;6179146;23;20009;-85
2023/07/18 08:26:13;;;;;;;9.80;3.58;;;18.50;99.90;;;;;;6178299;23;20005;-85
2023/07/18 08:28:38;;;;;;;5.47;2.40;;;18.60;99.90;;;;;;6179006;23;20092;-86
2023/07/18 08:31:04;;;;;;;7.07;2.38;;;18.70;99.90;;;;;;6179923;23;20422;-84
2023/07/18 08:33:30;;;;;;;7.85;2.40;;;18.70;99.90;;;;;;6179074;23;20005;-84
2023/07/18 08:35:56;;;;;;;6.55;2.53;;;18.70;99.90;;;;;;6179429;23;20083;-85
2023/07/18 08:38:21;;;;;;;13.38;2.80;;;18.70;99.90;;;;;;6178151;23;20369;-85
2023/07/18 08:40:48;;;;;;;17.33;3.15;;;18.80;99.90;;;;;;6175200;23;20028;-84
2023/07/18 08:43:16;;;;;;;7.10;2.80;;;18.80;99.90;;;;;;6176347;23;20087;-85
2023/07/18 08:45:42;;;;;;;5.82;2.70;;;18.80;99.90;;;;;;6175909;23;20005;-84
2023/07/18 08:48:08;;;;;;;5.75;2.47;;;18.90;99.90;;;;;;6151522;23;20024;-82
2023/07/18 08:50:35;;;;;;;8.88;2.80;;;18.90;99.90;;;;;;6179365;23;20001;-85
2023/07/18 08:53:04;;;;;;;5.75;2.50;;;19.00;99.90;;;;;;6178740;23;20383;-84
2023/07/18 08:55:30;;;;;;;6.70;2.50;;;19.10;99.90;;;;;;6179238;23;20005;-85
2023/07/18 08:57:56;;;;;;;9.30;2.70;;;19.20;99.90;;;;;;6178966;23;20122;-85
2023/07/18 09:00:22;;;;;;;6.97;2.60;;;19.20;99.90;;;;;;6176454;23;20071;-84
2023/07/18 09:02:50;;;;;;;6.50;2.55;;;19.30;99.90;;;;;;6178651;23;20005;-86
2023/07/18 09:05:36;;;;;;;6.00;2.55;;;19.20;99.90;;;;;;6178802;23;20004;-86
2023/07/18 09:08:05;;;;;;;5.43;2.15;;;19.30;99.90;;;;;;6179431;23;20013;-85
2023/07/18 09:10:31;;;;;;;10.60;2.90;;;19.40;99.90;;;;;;6177428;23;20064;-86
2023/07/18 09:13:05;;;;;;;4.25;2.20;;;19.50;99.90;;;;;;6152423;23;20076;-84
2023/07/18 09:15:35;;;;;;;3.35;1.77;;;19.50;99.90;;;;;;6178370;23;20005;-84
2023/07/18 09:18:03;;;;;;;9.35;2.63;;;19.60;99.90;;;;;;6178855;23;20084;-84
2023/07/18 09:20:32;;;;;;;4.15;2.03;;;19.60;99.90;;;;;;6178686;23;20106;-84
2023/07/18 09:23:05;;;;;;;3.67;2.03;;;19.60;99.90;;;;;;6179077;23;20002;-86
2023/07/18 09:25:31;;;;;;;5.07;1.45;;;19.70;99.90;;;;;;6178633;23;19997;-85
2023/07/18 09:27:57;;;;;;;4.32;1.70;;;19.90;99.90;;;;;;6178171;23;20095;-84
2023/07/18 09:30:32;;;;;;;4.78;1.70;;;20.00;98.90;;;;;;6179036;23;20001;-85
2023/07/18 09:32:58;;;;;;;4.53;1.73;;;20.00;98.00;;;;;;6178856;23;20032;-85
2023/07/18 09:35:27;;;;;;;3.33;1.92;;;20.00;99.40;;;;;;6176367;23;20432;-84
2023/07/18 09:37:53;;;;;;;4.30;1.70;;;20.10;99.90;;;;;;6178881;23;20024;-85
2023/07/18 09:40:19;;;;;;;7.18;1.77;;;20.10;99.90;;;;;;6178445;23;20019;-86
2023/07/18 09:42:46;;;;;;;5.32;1.60;;;20.10;99.90;;;;;;6178038;23;20009;-86
2023/07/18 09:45:16;;;;;;;2.28;1.25;;;20.10;97.20;;;;;;6179059;23;20005;-84
2023/07/18 09:47:43;;;;;;;2.17;1.42;;;20.10;96.40;;;;;;6178823;23;20013;-85
2023/07/18 09:50:13;;;;;;;9.85;1.85;;;20.20;99.30;;;;;;6178796;23;20004;-85
2023/07/18 09:52:47;;;;;;;4.38;2.00;;;20.30;97.20;;;;;;6178416;23;20004;-84
2023/07/18 09:55:14;;;;;;;1.83;1.40;;;20.30;93.50;;;;;;6178486;23;20147;-87
2023/07/18 09:57:41;;;;;;;2.97;1.70;;;20.30;96.20;;;;;;6178964;23;20382;-86
2023/07/18 10:00:11;;;;;;;3.08;1.50;;;20.30;99.00;;;;;;6178901;23;20446;-84
2023/07/18 10:02:36;;;;;;;1.83;1.40;;;20.40;96.40;;;;;;6177734;23;19993;-85
2023/07/18 10:05:04;;;;;;;2.60;1.42;;;20.40;96.40;;;;;;6179650;23;20001;-85
2023/07/18 10:07:33;;;;;;;2.65;1.38;;;20.60;95.40;;;;;;6178931;23;20238;-85
2023/07/18 10:10:04;;;;;;;3.33;1.63;;;20.60;93.00;;;;;;6178758;23;20092;-81
2023/07/18 10:12:37;;;;;;;4.35;1.67;;;20.80;92.60;;;;;;6178610;23;20027;-85
2023/07/18 10:15:04;;;;;;;9.52;1.88;;;20.80;91.20;;;;;;6178604;23;20011;-85
2023/07/18 10:17:38;;;;;;;4.47;1.92;;;20.80;93.10;;;;;;6178577;23;20001;-85
2023/07/18 10:20:24;;;;;;;3.13;2.07;;;20.80;93.00;;;;;;6178838;23;20058;-83
2023/07/18 10:22:56;;;;;;;;;;;21.00;94.40;;;;;;6178634;23;20076;-84
2023/07/18 10:25:23;;;;;;;5.22;1.67;;;21.10;94.70;;;;;;6178709;23;20393;-84
2023/07/18 10:27:49;;;;;;;3.35;1.80;;;21.10;96.10;;;;;;6178438;23;20431;-82
2023/07/18 10:30:17;;;;;;;3.67;1.77;;;21.30;92.90;;;;;;6178922;23;21186;-82
2023/07/18 10:32:49;;;;;;;3.80;1.90;;;21.30;96.30;;;;;;6178987;23;19993;-83
2023/07/18 10:35:17;;;;;;;1.98;1.52;;;21.40;92.80;;;;;;6178617;23;20005;-82
2023/07/18 10:37:44;;;;;;;5.82;1.77;;;21.30;93.00;;;;;;6150871;23;20005;-83
2023/07/18 10:40:29;;;;;;;4.10;2.08;;;21.30;91.60;;;;;;6175102;23;20051;-83
2023/07/18 10:42:55;;;;;;;7.40;1.70;;;21.30;97.00;;;;;;6174970;23;20020;-83
2023/07/18 10:45:20;;;;;;;3.10;1.60;;;21.40;94.00;;;;;;6177042;23;20079;-83
2023/07/18 10:47:46;;;;;;;3.80;1.90;;;21.40;93.50;;;;;;6178282;23;20009;-83
2023/07/18 10:50:13;;;;;;;3.63;1.92;;;21.60;96.70;;;;;;6177951;23;20026;-83
2023/07/18 10:52:40;;;;;;;4.18;1.70;;;21.60;93.50;;;;;;6177100;23;19997;-83
2023/07/18 10:55:07;;;;;;;4.88;2.05;;;21.60;95.70;;;;;;6178420;23;20339;-82
2023/07/18 10:57:38;;;;;;;3.40;1.63;;;21.50;93.60;;;;;;6178206;23;19997;-83
2023/07/18 11:00:05;;;;;;;7.25;1.85;;;21.40;93.30;;;;;;6177896;23;20005;-84
2023/07/18 11:02:49;;;;;;;2.95;1.70;;;21.40;94.50;;;;;;6178018;23;20426;-83
2023/07/18 11:05:14;;;;;;;2.90;1.40;;;21.40;94.60;;;;;;6177782;23;20005;-83
2023/07/18 11:07:42;;;;;;;2.03;1.40;;;21.40;92.40;;;;;;6177447;23;20012;-83
2023/07/18 11:10:12;;;;;;;3.25;1.63;;;21.50;86.60;;;;;;6177964;23;20360;-83
2023/07/18 11:12:38;;;;;;;2.10;1.30;;;21.60;89.90;;;;;;6151342;23;20165;-83
2023/07/18 11:15:09;;;;;;;2.22;1.20;;;21.60;91.10;;;;;;6179578;23;20013;-83
2023/07/18 11:17:35;;;;;;;8.02;1.58;;;21.50;92.00;;;;;;6180747;23;20390;-83
2023/07/18 11:20:02;;;;;;;2.28;1.35;;;21.50;90.90;;;;;;6180332;23;20351;-82
2023/07/18 11:22:29;;;;;;;4.22;1.40;;;21.60;86.40;;;;;;6180509;23;20051;-80
2023/07/18 11:24:55;;;;;;;4.85;1.98;;;21.70;86.10;;;;;;6178977;23;20494;-82
2023/07/18 11:27:29;;;;;;;2.97;1.50;;;22.00;83.70;;;;;;6180612;23;20008;-83
2023/07/18 11:29:56;;;;;;;2.90;1.35;;;22.10;83.40;;;;;;6180114;23;20380;-83
2023/07/18 11:32:40;;;;;;;2.38;1.35;;;22.20;90.40;;;;;;6180059;23;20076;-83
2023/07/18 11:35:11;;;;;;;2.15;1.30;;;22.30;89.80;;;;;;6154418;23;20063;-84
2023/07/18 11:37:43;;;;;;;7.05;1.20;;;22.30;84.10;;;;;;6180410;23;20001;-83
2023/07/18 11:40:10;;;;;;;2.67;1.20;;;22.30;79.70;;;;;;6179805;23;20075;-83
2023/07/18 11:42:42;;;;;;;2.08;1.45;;;22.40;70.70;;;;;;6180328;23;19997;-80
2023/07/18 11:45:09;;;;;;;3.85;1.45;;;22.40;74.40;;;;;;6180485;23;20028;-83
2023/07/18 11:47:37;;;;;;;2.00;1.17;;;22.50;79.60;;;;;;6179033;23;20335;-82
2023/07/18 11:50:08;;;;;;;2.10;1.25;;;22.50;74.80;;;;;;6179819;23;20051;-82
2023/07/18 11:52:34;;;;;;;1.85;1.15;;;22.50;74.90;;;;;;6180225;23;19989;-83
2023/07/18 11:54:59;;;;;;;4.57;1.67;;;22.40;73.90;;;;;;6179685;23;20056;-83
2023/07/18 11:57:25;;;;;;;5.90;1.60;;;22.40;71.50;;;;;;6180241;23;20005;-83
2023/07/18 11:59:50;;;;;;;6.05;1.70;;;22.40;73.50;;;;;;6178947;23;20020;-82
2023/07/18 12:02:16;;;;;;;2.75;1.35;;;22.50;76.00;;;;;;6178244;23;20490;-83
2023/07/18 12:04:41;;;;;;;3.33;1.65;;;22.60;74.70;;;;;;6179389;23;20355;-83
2023/07/18 12:07:07;;;;;;;3.88;1.55;;;22.60;79.00;;;;;;6179540;23;20005;-83
2023/07/18 12:09:33;;;;;;;3.97;1.55;;;22.60;72.90;;;;;;6179496;23;20067;-81
2023/07/18 12:11:59;;;;;;;3.45;1.48;;;22.70;78.70;;;;;;6179070;23;20277;-83
2023/07/18 12:14:25;;;;;;;3.30;1.38;;;22.80;68.40;;;;;;6179342;23;20009;-82
2023/07/18 12:16:51;;;;;;;6.95;1.33;;;22.80;75.20;;;;;;6179980;23;20084;-83
2023/07/18 12:19:19;;;;;;;2.10;1.13;;;22.80;73.00;;;;;;6179798;23;20060;-83
2023/07/18 12:21:44;;;;;;;2.53;1.40;;;23.00;74.50;;;;;;6178928;23;20017;-83
2023/07/18 12:24:10;;;;;;;3.67;1.67;;;22.90;74.50;;;;;;6177791;23;20012;-82
2023/07/18 12:26:36;;;;;;;3.85;1.02;;;23.00;70.70;;;;;;6179393;23;20084;-83
2023/07/18 12:29:03;;;;;;;2.28;1.25;;;23.00;61.80;;;;;;6179163;23;20005;-82
2023/07/18 12:31:29;;;;;;;1.10;1.00;;;23.00;66.90;;;;;;6179347;23;20001;-83
2023/07/18 12:33:54;;;;;;;1.83;1.10;;;23.10;63.10;;;;;;6178398;23;20005;-82
2023/07/18 12:36:20;;;;;;;1.08;0.98;;;23.10;64.10;;;;;;6178170;23;20001;-80
2023/07/18 12:38:46;;;;;;;2.92;0.80;;;23.00;60.80;;;;;;6177554;23;20432;-83
2023/07/18 12:41:12;;;;;;;2.83;1.00;;;23.10;57.90;;;;;;6178906;23;20013;-83